Sunday, October 22, 2017, 5:03 PM EDT
Back to Local

KLGA, New York La Guardia Airport

Location: Astoria, NY, United States Lat: 40.783
Local Time: 5:03 PM EDT (21:03 GMT) Lon: -73.883
Time Zone: US/Eastern Elev: 22 ft

Show me the last for .
Show Decoded

2017-10-22 16:51 METAR KLGA 222051Z 17011KT 10SM FEW100 BKN150 BKN250 22/06 A3036 RMK AO2 SLP279
                 T02170061 56005 $ =
2017-10-22 15:51 METAR KLGA 221951Z 18009KT 10SM FEW100 BKN150 BKN250 23/03 A3036 RMK AO2 SLP279
                 T02280028 $ =
2017-10-22 14:51 METAR KLGA 221851Z 17011KT 10SM FEW100 BKN250 23/04 A3036 RMK AO2 SLP282
                 T02330039 $ =
2017-10-22 13:51 METAR KLGA 221751Z 18007KT 10SM FEW090 SCT170 BKN250 23/06 A3037 RMK AO2 SLP284
                 T02330056 10244 20156 58010 $ =
2017-10-22 12:51 METAR KLGA 221651Z 17009KT 10SM FEW090 SCT200 BKN250 24/04 A3039 RMK AO2 SLP289
                 T02390044 $ =
2017-10-22 11:51 METAR KLGA 221551Z 15004KT 10SM FEW090 SCT200 BKN250 23/08 A3039 RMK AO2 SLP292
                 T02330078 $ =
2017-10-22 10:51 METAR KLGA 221451Z 00000KT 10SM FEW090 SCT190 BKN250 21/09 A3040 RMK AO2 SLP294
                 T02110089 50002 $ =
2017-10-22 09:51 METAR KLGA 221351Z VRB03KT 10SM FEW090 SCT190 BKN250 19/12 A3041 RMK AO2 SLP296
                 T01890117 $ =
2017-10-22 08:51 METAR KLGA 221251Z 00000KT 10SM FEW090 SCT190 BKN250 17/12 A3041 RMK AO2 SLP297
                 T01720122 $ =
2017-10-22 07:51 METAR KLGA 221151Z 10003KT 10SM FEW090 SCT190 BKN250 16/12 A3039 RMK AO2 SLP291
                 T01560122 10178 20144 53013 $ =
2017-10-22 06:51 METAR KLGA 221051Z 08003KT 10SM FEW090 SCT250 16/12 A3038 RMK AO2 SLP286
                 T01560117 $ =
2017-10-22 05:51 METAR KLGA 220951Z 03003KT 10SM CLR 15/12 A3037 RMK AO2 SLP283 T01500117 $ =
2017-10-22 04:51 METAR KLGA 220851Z 00000KT 10SM CLR 16/09 A3036 RMK AO2 SLP279 T01610094 53002 $
                 =
2017-10-22 03:51 METAR KLGA 220751Z 00000KT 10SM FEW250 16/08 A3035 RMK AO2 SLP276 T01610083 $ =
2017-10-22 02:51 METAR KLGA 220651Z 00000KT 10SM FEW250 17/08 A3034 RMK AO2 SLP274 T01720083 $ =
2017-10-22 01:51 METAR KLGA 220551Z 00000KT 10SM CLR 18/08 A3035 RMK AO2 SLP277 T01780083 10194
                 20167 50001 $ =
2017-10-22 00:51 METAR KLGA 220451Z 00000KT 10SM BKN250 18/08 A3035 RMK AO2 SLP277 T01780083 $ =
2017-10-21 23:51 METAR KLGA 220351Z 21005KT 10SM BKN250 19/08 A3035 RMK AO2 SLP276 T01890078 $ =
2017-10-21 22:51 METAR KLGA 220251Z 21005KT 10SM FEW250 19/08 A3035 RMK AO2 SLP276 T01890078
                 51005 $ =
2017-10-21 21:51 METAR KLGA 220151Z 20006KT 10SM FEW250 19/08 A3035 RMK AO2 SLP276 T01940083 $ =
2017-10-21 20:51 METAR KLGA 220051Z 19006KT 10SM FEW250 19/08 A3034 RMK AO2 SLP275 T01940083 $ =
2017-10-21 19:51 METAR KLGA 212351Z 20007KT 10SM BKN250 20/06 A3033 RMK AO2 SLP271 T02000061
                 51011 $ =
2017-10-21 18:51 METAR KLGA 212251Z 19008KT 10SM BKN250 21/03 A3033 RMK AO2 SLP269 T02060028 $ =
2017-10-21 17:51 METAR KLGA 212151Z 19008KT 10SM BKN250 22/03 A3031 RMK AO2 SLP263 T02170028 $ =

Support USWX by starting your Amazon purchase here.